sensor_id;sensor_type;location;lat;lon;timestamp;temperature;humidity
820;DHT22;392;48.838;2.322;2022-10-31T00:01:10;16.70;57.50
820;DHT22;392;48.838;2.322;2022-10-31T00:03:37;16.70;57.90
820;DHT22;392;48.838;2.322;2022-10-31T00:06:05;16.70;58.20
820;DHT22;392;48.838;2.322;2022-10-31T00:08:32;16.70;58.00
820;DHT22;392;48.838;2.322;2022-10-31T00:10:59;16.70;58.10
820;DHT22;392;48.838;2.322;2022-10-31T00:13:27;16.70;58.20
820;DHT22;392;48.838;2.322;2022-10-31T00:15:55;16.70;58.30
820;DHT22;392;48.838;2.322;2022-10-31T00:18:24;16.70;58.10
820;DHT22;392;48.838;2.322;2022-10-31T00:20:58;16.80;58.00
820;DHT22;392;48.838;2.322;2022-10-31T00:23:26;16.80;58.00
820;DHT22;392;48.838;2.322;2022-10-31T00:25:54;16.70;57.90
820;DHT22;392;48.838;2.322;2022-10-31T00:28:21;16.70;58.00
820;DHT22;392;48.838;2.322;2022-10-31T00:30:48;16.70;59.20
820;DHT22;392;48.838;2.322;2022-10-31T00:33:17;16.60;58.80
820;DHT22;392;48.838;2.322;2022-10-31T00:35:49;16.60;59.10
820;DHT22;392;48.838;2.322;2022-10-31T00:38:17;16.60;59.40
820;DHT22;392;48.838;2.322;2022-10-31T00:40:44;16.60;59.40
820;DHT22;392;48.838;2.322;2022-10-31T00:43:11;16.70;59.30
820;DHT22;392;48.838;2.322;2022-10-31T00:45:39;16.70;58.90
820;DHT22;392;48.838;2.322;2022-10-31T00:48:09;16.70;58.80
820;DHT22;392;48.838;2.322;2022-10-31T00:50:39;16.70;58.90
820;DHT22;392;48.838;2.322;2022-10-31T00:53:06;16.70;59.00
820;DHT22;392;48.838;2.322;2022-10-31T00:55:34;16.70;59.40
820;DHT22;392;48.838;2.322;2022-10-31T00:58:01;16.70;59.20
820;DHT22;392;48.838;2.322;2022-10-31T01:00:28;16.60;59.30
820;DHT22;392;48.838;2.322;2022-10-31T01:02:56;16.60;59.70
820;DHT22;392;48.838;2.322;2022-10-31T01:05:23;16.60;59.70
820;DHT22;392;48.838;2.322;2022-10-31T01:07:52;16.60;60.20
820;DHT22;392;48.838;2.322;2022-10-31T01:10:19;16.60;60.20
820;DHT22;392;48.838;2.322;2022-10-31T01:12:48;16.60;60.00
820;DHT22;392;48.838;2.322;2022-10-31T01:15:19;16.60;59.90
820;DHT22;392;48.838;2.322;2022-10-31T01:17:48;16.60;59.70
820;DHT22;392;48.838;2.322;2022-10-31T01:20:17;16.60;59.70
820;DHT22;392;48.838;2.322;2022-10-31T01:22:44;16.60;60.10
820;DHT22;392;48.838;2.322;2022-10-31T01:25:13;16.60;59.90
820;DHT22;392;48.838;2.322;2022-10-31T01:27:41;16.60;59.70
820;DHT22;392;48.838;2.322;2022-10-31T01:30:09;16.50;60.00
820;DHT22;392;48.838;2.322;2022-10-31T01:32:37;16.40;60.50
820;DHT22;392;48.838;2.322;2022-10-31T01:35:05;16.40;61.40
820;DHT22;392;48.838;2.322;2022-10-31T01:37:33;16.40;62.00
820;DHT22;392;48.838;2.322;2022-10-31T01:40:00;16.40;62.30
820;DHT22;392;48.838;2.322;2022-10-31T01:42:29;16.40;62.50
820;DHT22;392;48.838;2.322;2022-10-31T01:44:59;16.30;62.70
820;DHT22;392;48.838;2.322;2022-10-31T01:47:40;16.40;63.20
820;DHT22;392;48.838;2.322;2022-10-31T01:50:21;16.30;63.50
820;DHT22;392;48.838;2.322;2022-10-31T01:52:54;16.40;63.60
820;DHT22;392;48.838;2.322;2022-10-31T01:55:25;16.40;63.70
820;DHT22;392;48.838;2.322;2022-10-31T01:58:02;16.30;63.60
820;DHT22;392;48.838;2.322;2022-10-31T02:00:32;16.30;64.20
820;DHT22;392;48.838;2.322;2022-10-31T02:03:01;16.30;64.10
820;DHT22;392;48.838;2.322;2022-10-31T02:05:31;16.20;64.00
820;DHT22;392;48.838;2.322;2022-10-31T02:08:02;16.20;64.40
820;DHT22;392;48.838;2.322;2022-10-31T02:10:33;16.20;64.70
820;DHT22;392;48.838;2.322;2022-10-31T02:13:04;16.30;65.00
820;DHT22;392;48.838;2.322;2022-10-31T02:15:36;16.30;64.60
820;DHT22;392;48.838;2.322;2022-10-31T02:18:04;16.30;65.20
820;DHT22;392;48.838;2.322;2022-10-31T02:20:34;16.20;65.50
820;DHT22;392;48.838;2.322;2022-10-31T02:23:47;16.30;65.80
820;DHT22;392;48.838;2.322;2022-10-31T02:27:21;16.30;66.20
820;DHT22;392;48.838;2.322;2022-10-31T02:30:15;16.30;65.80
820;DHT22;392;48.838;2.322;2022-10-31T02:32:57;16.20;65.70
820;DHT22;392;48.838;2.322;2022-10-31T02:35:43;16.20;65.90
820;DHT22;392;48.838;2.322;2022-10-31T02:38:25;16.30;65.90
820;DHT22;392;48.838;2.322;2022-10-31T02:41:09;16.20;66.10
820;DHT22;392;48.838;2.322;2022-10-31T02:43:56;16.30;66.30
820;DHT22;392;48.838;2.322;2022-10-31T02:46:32;16.30;66.50
820;DHT22;392;48.838;2.322;2022-10-31T02:49:09;16.30;66.40
820;DHT22;392;48.838;2.322;2022-10-31T02:51:39;16.30;66.50
820;DHT22;392;48.838;2.322;2022-10-31T02:54:19;16.30;66.40
820;DHT22;392;48.838;2.322;2022-10-31T02:56:56;16.30;66.40
820;DHT22;392;48.838;2.322;2022-10-31T02:59:25;16.30;66.10
820;DHT22;392;48.838;2.322;2022-10-31T03:02:09;16.30;66.20
820;DHT22;392;48.838;2.322;2022-10-31T03:08:11;16.30;66.20
820;DHT22;392;48.838;2.322;2022-10-31T03:10:48;16.30;66.10
820;DHT22;392;48.838;2.322;2022-10-31T03:13:24;16.30;66.10
820;DHT22;392;48.838;2.322;2022-10-31T03:16:01;16.30;66.20
820;DHT22;392;48.838;2.322;2022-10-31T03:18:34;16.30;65.90
820;DHT22;392;48.838;2.322;2022-10-31T03:21:09;16.30;65.80
820;DHT22;392;48.838;2.322;2022-10-31T03:23:40;16.30;65.90
820;DHT22;392;48.838;2.322;2022-10-31T03:26:11;16.30;65.80
820;DHT22;392;48.838;2.322;2022-10-31T03:28:45;16.30;66.00
820;DHT22;392;48.838;2.322;2022-10-31T03:31:16;16.30;66.00
820;DHT22;392;48.838;2.322;2022-10-31T03:33:49;16.30;65.90
820;DHT22;392;48.838;2.322;2022-10-31T03:36:20;16.30;66.10
820;DHT22;392;48.838;2.322;2022-10-31T03:38:49;16.30;66.30
820;DHT22;392;48.838;2.322;2022-10-31T03:41:21;16.30;66.40
820;DHT22;392;48.838;2.322;2022-10-31T03:43:55;16.30;66.40
820;DHT22;392;48.838;2.322;2022-10-31T03:46:34;16.20;66.70
820;DHT22;392;48.838;2.322;2022-10-31T03:49:02;16.20;66.90
820;DHT22;392;48.838;2.322;2022-10-31T03:51:36;16.10;67.30
820;DHT22;392;48.838;2.322;2022-10-31T03:54:12;16.10;67.70
820;DHT22;392;48.838;2.322;2022-10-31T03:56:49;16.10;68.10
820;DHT22;392;48.838;2.322;2022-10-31T03:59:21;16.10;68.20
820;DHT22;392;48.838;2.322;2022-10-31T04:01:55;16.20;68.20
820;DHT22;392;48.838;2.322;2022-10-31T04:04:25;16.10;68.40
820;DHT22;392;48.838;2.322;2022-10-31T04:06:56;16.10;68.60
820;DHT22;392;48.838;2.322;2022-10-31T04:09:25;16.10;68.90
820;DHT22;392;48.838;2.322;2022-10-31T04:11:56;16.10;69.30
820;DHT22;392;48.838;2.322;2022-10-31T04:14:47;16.00;69.30
820;DHT22;392;48.838;2.322;2022-10-31T04:17:19;16.00;69.70
820;DHT22;392;48.838;2.322;2022-10-31T04:19:48;16.00;70.80
820;DHT22;392;48.838;2.322;2022-10-31T04:22:18;16.00;70.40
820;DHT22;392;48.838;2.322;2022-10-31T04:24:45;15.90;70.90
820;DHT22;392;48.838;2.322;2022-10-31T04:27:15;16.00;71.30
820;DHT22;392;48.838;2.322;2022-10-31T04:29:42;15.90;71.60
820;DHT22;392;48.838;2.322;2022-10-31T04:32:09;16.00;71.90
820;DHT22;392;48.838;2.322;2022-10-31T04:34:37;15.90;71.70
820;DHT22;392;48.838;2.322;2022-10-31T04:37:04;15.90;71.90
820;DHT22;392;48.838;2.322;2022-10-31T04:39:33;15.90;72.00
820;DHT22;392;48.838;2.322;2022-10-31T04:42:19;15.90;71.80
820;DHT22;392;48.838;2.322;2022-10-31T04:44:47;15.90;71.30
820;DHT22;392;48.838;2.322;2022-10-31T04:47:15;15.90;71.20
820;DHT22;392;48.838;2.322;2022-10-31T04:49:42;15.90;71.30
820;DHT22;392;48.838;2.322;2022-10-31T04:52:12;15.90;71.50
820;DHT22;392;48.838;2.322;2022-10-31T04:54:41;15.90;71.70
820;DHT22;392;48.838;2.322;2022-10-31T04:57:48;15.90;72.00
820;DHT22;392;48.838;2.322;2022-10-31T05:00:19;15.90;72.30
820;DHT22;392;48.838;2.322;2022-10-31T05:02:51;15.90;72.00
820;DHT22;392;48.838;2.322;2022-10-31T05:05:21;15.90;71.80
820;DHT22;392;48.838;2.322;2022-10-31T05:07:50;15.90;71.50
820;DHT22;392;48.838;2.322;2022-10-31T05:10:23;15.90;71.40
820;DHT22;392;48.838;2.322;2022-10-31T05:12:52;15.90;71.40
820;DHT22;392;48.838;2.322;2022-10-31T05:15:33;15.80;71.00
820;DHT22;392;48.838;2.322;2022-10-31T05:18:18;15.80;71.00
820;DHT22;392;48.838;2.322;2022-10-31T05:21:04;15.80;70.70
820;DHT22;392;48.838;2.322;2022-10-31T05:23:37;15.80;70.70
820;DHT22;392;48.838;2.322;2022-10-31T05:26:08;15.80;70.70
820;DHT22;392;48.838;2.322;2022-10-31T05:28:36;15.80;70.80
820;DHT22;392;48.838;2.322;2022-10-31T05:31:03;15.80;70.60
820;DHT22;392;48.838;2.322;2022-10-31T05:33:31;15.80;70.60
820;DHT22;392;48.838;2.322;2022-10-31T05:36:17;15.80;70.60
820;DHT22;392;48.838;2.322;2022-10-31T05:39:03;15.80;70.50
820;DHT22;392;48.838;2.322;2022-10-31T05:41:36;15.80;70.60
820;DHT22;392;48.838;2.322;2022-10-31T05:44:08;15.80;70.60
820;DHT22;392;48.838;2.322;2022-10-31T05:46:50;15.80;70.40
820;DHT22;392;48.838;2.322;2022-10-31T05:49:36;15.80;71.00
820;DHT22;392;48.838;2.322;2022-10-31T05:52:29;15.80;70.80
820;DHT22;392;48.838;2.322;2022-10-31T05:55:05;15.80;70.10
820;DHT22;392;48.838;2.322;2022-10-31T05:57:33;15.80;70.00
820;DHT22;392;48.838;2.322;2022-10-31T06:00:02;15.80;70.00
820;DHT22;392;48.838;2.322;2022-10-31T06:02:34;15.90;69.80
820;DHT22;392;48.838;2.322;2022-10-31T06:05:24;15.90;69.60
820;DHT22;392;48.838;2.322;2022-10-31T06:07:52;15.80;69.20
820;DHT22;392;48.838;2.322;2022-10-31T06:10:20;15.80;69.30
820;DHT22;392;48.838;2.322;2022-10-31T06:12:52;15.70;69.40
820;DHT22;392;48.838;2.322;2022-10-31T06:15:27;15.70;69.50
820;DHT22;392;48.838;2.322;2022-10-31T06:17:59;15.70;69.60
820;DHT22;392;48.838;2.322;2022-10-31T06:20:29;15.80;69.70
820;DHT22;392;48.838;2.322;2022-10-31T06:23:02;15.70;69.50
820;DHT22;392;48.838;2.322;2022-10-31T06:25:32;15.70;69.50
820;DHT22;392;48.838;2.322;2022-10-31T06:28:01;15.70;69.60
820;DHT22;392;48.838;2.322;2022-10-31T06:30:39;15.70;69.60
820;DHT22;392;48.838;2.322;2022-10-31T06:33:07;15.80;69.10
820;DHT22;392;48.838;2.322;2022-10-31T06:35:38;15.80;68.80
820;DHT22;392;48.838;2.322;2022-10-31T06:38:05;15.80;69.40
820;DHT22;392;48.838;2.322;2022-10-31T06:40:37;15.80;68.60
820;DHT22;392;48.838;2.322;2022-10-31T06:43:19;15.80;68.50
820;DHT22;392;48.838;2.322;2022-10-31T06:45:47;15.80;68.70
820;DHT22;392;48.838;2.322;2022-10-31T06:48:21;15.80;68.80
820;DHT22;392;48.838;2.322;2022-10-31T06:51:12;15.80;68.90
820;DHT22;392;48.838;2.322;2022-10-31T06:53:41;15.80;68.80
820;DHT22;392;48.838;2.322;2022-10-31T06:56:10;15.80;68.80
820;DHT22;392;48.838;2.322;2022-10-31T06:58:45;15.80;69.10
820;DHT22;392;48.838;2.322;2022-10-31T07:01:13;15.80;69.80
820;DHT22;392;48.838;2.322;2022-10-31T07:03:40;15.80;69.30
820;DHT22;392;48.838;2.322;2022-10-31T07:06:07;15.80;69.30
820;DHT22;392;48.838;2.322;2022-10-31T07:08:35;15.80;69.20
820;DHT22;392;48.838;2.322;2022-10-31T07:11:02;15.80;69.20
820;DHT22;392;48.838;2.322;2022-10-31T07:13:30;15.80;69.20
820;DHT22;392;48.838;2.322;2022-10-31T07:16:07;15.80;69.20
820;DHT22;392;48.838;2.322;2022-10-31T07:18:37;15.80;69.30
820;DHT22;392;48.838;2.322;2022-10-31T07:21:05;15.90;69.40
820;DHT22;392;48.838;2.322;2022-10-31T07:23:34;15.80;69.20
820;DHT22;392;48.838;2.322;2022-10-31T07:26:21;15.90;69.40
820;DHT22;392;48.838;2.322;2022-10-31T07:28:49;15.90;69.40
820;DHT22;392;48.838;2.322;2022-10-31T07:31:21;15.90;69.50
820;DHT22;392;48.838;2.322;2022-10-31T07:33:51;16.00;69.50
820;DHT22;392;48.838;2.322;2022-10-31T07:36:24;16.00;69.40
820;DHT22;392;48.838;2.322;2022-10-31T07:38:55;16.00;69.30
820;DHT22;392;48.838;2.322;2022-10-31T07:41:24;16.00;69.30
820;DHT22;392;48.838;2.322;2022-10-31T07:43:52;16.00;69.30
820;DHT22;392;48.838;2.322;2022-10-31T07:46:44;16.00;69.30
820;DHT22;392;48.838;2.322;2022-10-31T07:49:50;16.00;70.20
820;DHT22;392;48.838;2.322;2022-10-31T07:52:30;16.00;69.40
820;DHT22;392;48.838;2.322;2022-10-31T07:55:18;16.10;69.10
820;DHT22;392;48.838;2.322;2022-10-31T07:57:55;16.10;68.80
820;DHT22;392;48.838;2.322;2022-10-31T08:00:23;16.00;68.90
820;DHT22;392;48.838;2.322;2022-10-31T08:03:00;16.10;69.10
820;DHT22;392;48.838;2.322;2022-10-31T08:05:49;16.10;69.10
820;DHT22;392;48.838;2.322;2022-10-31T08:08:27;16.10;69.90
820;DHT22;392;48.838;2.322;2022-10-31T08:10:54;16.10;69.30
820;DHT22;392;48.838;2.322;2022-10-31T08:13:22;16.10;69.30
820;DHT22;392;48.838;2.322;2022-10-31T08:15:50;16.10;69.40
820;DHT22;392;48.838;2.322;2022-10-31T08:18:25;16.10;69.50
820;DHT22;392;48.838;2.322;2022-10-31T08:20:53;16.10;69.60
820;DHT22;392;48.838;2.322;2022-10-31T08:23:21;16.10;69.90
820;DHT22;392;48.838;2.322;2022-10-31T08:25:48;16.20;70.00
820;DHT22;392;48.838;2.322;2022-10-31T08:28:16;16.20;70.00
820;DHT22;392;48.838;2.322;2022-10-31T08:30:46;16.20;70.00
820;DHT22;392;48.838;2.322;2022-10-31T08:33:47;16.20;70.00
820;DHT22;392;48.838;2.322;2022-10-31T08:36:33;16.20;70.20
820;DHT22;392;48.838;2.322;2022-10-31T08:39:22;16.20;70.40
820;DHT22;392;48.838;2.322;2022-10-31T08:41:50;16.20;70.50
820;DHT22;392;48.838;2.322;2022-10-31T08:44:18;16.20;70.50
820;DHT22;392;48.838;2.322;2022-10-31T08:46:47;16.20;70.60
820;DHT22;392;48.838;2.322;2022-10-31T08:49:16;16.20;70.70
820;DHT22;392;48.838;2.322;2022-10-31T08:51:47;16.20;70.80
820;DHT22;392;48.838;2.322;2022-10-31T08:54:15;16.20;71.20
820;DHT22;392;48.838;2.322;2022-10-31T08:57:05;16.20;71.00
820;DHT22;392;48.838;2.322;2022-10-31T08:59:40;16.30;70.60
820;DHT22;392;48.838;2.322;2022-10-31T09:02:27;16.30;70.60
820;DHT22;392;48.838;2.322;2022-10-31T09:04:59;16.40;70.00
820;DHT22;392;48.838;2.322;2022-10-31T09:07:27;16.50;69.00
820;DHT22;392;48.838;2.322;2022-10-31T09:09:55;16.60;68.50
820;DHT22;392;48.838;2.322;2022-10-31T09:12:22;16.70;67.10
820;DHT22;392;48.838;2.322;2022-10-31T09:15:09;16.70;66.50
820;DHT22;392;48.838;2.322;2022-10-31T09:17:57;16.60;66.20
820;DHT22;392;48.838;2.322;2022-10-31T09:20:44;16.70;66.80
820;DHT22;392;48.838;2.322;2022-10-31T09:23:13;16.70;66.50
820;DHT22;392;48.838;2.322;2022-10-31T09:25:42;16.70;66.50
820;DHT22;392;48.838;2.322;2022-10-31T09:28:36;16.70;67.20
820;DHT22;392;48.838;2.322;2022-10-31T09:31:09;16.80;67.00
820;DHT22;392;48.838;2.322;2022-10-31T09:34:02;16.80;66.30
820;DHT22;392;48.838;2.322;2022-10-31T09:36:38;16.90;65.90
820;DHT22;392;48.838;2.322;2022-10-31T09:39:12;17.00;65.30
820;DHT22;392;48.838;2.322;2022-10-31T09:41:54;17.10;65.60
820;DHT22;392;48.838;2.322;2022-10-31T09:44:36;17.20;63.90
820;DHT22;392;48.838;2.322;2022-10-31T09:47:35;17.20;62.80
820;DHT22;392;48.838;2.322;2022-10-31T09:50:31;17.30;62.70
820;DHT22;392;48.838;2.322;2022-10-31T09:53:30;17.40;61.50
820;DHT22;392;48.838;2.322;2022-10-31T09:56:02;17.50;61.20
820;DHT22;392;48.838;2.322;2022-10-31T09:58:34;17.60;60.60
820;DHT22;392;48.838;2.322;2022-10-31T10:01:17;17.70;60.70
820;DHT22;392;48.838;2.322;2022-10-31T10:03:55;17.70;59.20
820;DHT22;392;48.838;2.322;2022-10-31T10:06:51;17.80;58.30
820;DHT22;392;48.838;2.322;2022-10-31T10:09:38;17.80;58.60
820;DHT22;392;48.838;2.322;2022-10-31T10:12:42;17.90;58.20
820;DHT22;392;48.838;2.322;2022-10-31T10:15:30;18.00;57.80
820;DHT22;392;48.838;2.322;2022-10-31T10:18:12;18.20;57.10
820;DHT22;392;48.838;2.322;2022-10-31T10:20:56;18.30;55.50
820;DHT22;392;48.838;2.322;2022-10-31T10:23:38;18.40;54.00
820;DHT22;392;48.838;2.322;2022-10-31T10:26:19;18.40;52.60
820;DHT22;392;48.838;2.322;2022-10-31T10:28:49;18.60;52.70
820;DHT22;392;48.838;2.322;2022-10-31T10:31:24;18.60;51.60
820;DHT22;392;48.838;2.322;2022-10-31T10:34:01;18.70;50.80
820;DHT22;392;48.838;2.322;2022-10-31T10:36:33;18.70;50.10
820;DHT22;392;48.838;2.322;2022-10-31T10:39:08;18.60;50.70
820;DHT22;392;48.838;2.322;2022-10-31T10:41:48;18.80;50.50
820;DHT22;392;48.838;2.322;2022-10-31T10:44:30;18.90;49.80
820;DHT22;392;48.838;2.322;2022-10-31T10:47:15;19.00;49.00
820;DHT22;392;48.838;2.322;2022-10-31T10:50:03;19.00;48.30
820;DHT22;392;48.838;2.322;2022-10-31T10:52:40;19.10;47.60
820;DHT22;392;48.838;2.322;2022-10-31T10:55:18;19.30;47.60
820;DHT22;392;48.838;2.322;2022-10-31T10:57:56;19.50;46.20
820;DHT22;392;48.838;2.322;2022-10-31T11:00:27;19.70;44.60
820;DHT22;392;48.838;2.322;2022-10-31T11:02:57;19.80;43.90
820;DHT22;392;48.838;2.322;2022-10-31T11:05:28;19.80;43.00
820;DHT22;392;48.838;2.322;2022-10-31T11:08:01;19.90;43.10
820;DHT22;392;48.838;2.322;2022-10-31T11:10:29;19.80;42.40
820;DHT22;392;48.838;2.322;2022-10-31T11:13:03;19.80;42.90
820;DHT22;392;48.838;2.322;2022-10-31T11:15:36;19.80;42.70
820;DHT22;392;48.838;2.322;2022-10-31T11:18:05;19.80;42.30
820;DHT22;392;48.838;2.322;2022-10-31T11:20:34;19.80;42.00
820;DHT22;392;48.838;2.322;2022-10-31T11:23:04;19.80;42.60
820;DHT22;392;48.838;2.322;2022-10-31T11:25:50;19.90;41.30
820;DHT22;392;48.838;2.322;2022-10-31T11:28:21;20.00;42.00
820;DHT22;392;48.838;2.322;2022-10-31T11:30:51;20.10;41.00
820;DHT22;392;48.838;2.322;2022-10-31T11:33:24;20.10;40.40
820;DHT22;392;48.838;2.322;2022-10-31T11:35:55;20.10;40.20
820;DHT22;392;48.838;2.322;2022-10-31T11:38:24;20.20;39.60
820;DHT22;392;48.838;2.322;2022-10-31T11:40:56;20.20;39.50
820;DHT22;392;48.838;2.322;2022-10-31T11:43:26;20.30;39.30
820;DHT22;392;48.838;2.322;2022-10-31T11:45:54;20.30;39.00
820;DHT22;392;48.838;2.322;2022-10-31T11:48:23;20.30;38.80
820;DHT22;392;48.838;2.322;2022-10-31T11:50:53;20.30;38.60
820;DHT22;392;48.838;2.322;2022-10-31T11:53:26;20.30;38.40
820;DHT22;392;48.838;2.322;2022-10-31T11:56:09;20.40;38.50
820;DHT22;392;48.838;2.322;2022-10-31T11:58:41;20.40;38.80
820;DHT22;392;48.838;2.322;2022-10-31T12:01:24;20.40;38.50
820;DHT22;392;48.838;2.322;2022-10-31T12:04:01;20.50;39.00
820;DHT22;392;48.838;2.322;2022-10-31T12:06:34;20.50;38.60
820;DHT22;392;48.838;2.322;2022-10-31T12:09:15;20.50;38.60
820;DHT22;392;48.838;2.322;2022-10-31T12:11:55;20.50;38.50
820;DHT22;392;48.838;2.322;2022-10-31T12:14:36;20.50;38.50
820;DHT22;392;48.838;2.322;2022-10-31T12:17:14;20.50;38.00
820;DHT22;392;48.838;2.322;2022-10-31T12:19:49;20.50;38.00
820;DHT22;392;48.838;2.322;2022-10-31T12:22:34;20.50;37.60
820;DHT22;392;48.838;2.322;2022-10-31T12:25:18;20.60;37.70
820;DHT22;392;48.838;2.322;2022-10-31T12:28:11;20.60;37.80
820;DHT22;392;48.838;2.322;2022-10-31T12:30:57;20.70;37.40
820;DHT22;392;48.838;2.322;2022-10-31T12:33:43;20.80;37.30
820;DHT22;392;48.838;2.322;2022-10-31T12:36:34;20.90;37.00
820;DHT22;392;48.838;2.322;2022-10-31T12:39:23;21.00;35.60
820;DHT22;392;48.838;2.322;2022-10-31T12:41:57;21.00;35.80
820;DHT22;392;48.838;2.322;2022-10-31T12:44:51;21.10;35.40
820;DHT22;392;48.838;2.322;2022-10-31T12:47:53;21.10;35.70
820;DHT22;392;48.838;2.322;2022-10-31T12:50:33;21.10;35.90
820;DHT22;392;48.838;2.322;2022-10-31T12:53:22;21.10;36.00
820;DHT22;392;48.838;2.322;2022-10-31T12:56:07;21.20;36.00
820;DHT22;392;48.838;2.322;2022-10-31T12:58:46;21.30;36.20
820;DHT22;392;48.838;2.322;2022-10-31T13:01:20;21.60;35.60
820;DHT22;392;48.838;2.322;2022-10-31T13:03:55;21.90;34.60
820;DHT22;392;48.838;2.322;2022-10-31T13:06:29;22.00;33.90
820;DHT22;392;48.838;2.322;2022-10-31T13:09:02;21.80;34.60
820;DHT22;392;48.838;2.322;2022-10-31T13:11:36;21.70;35.20
820;DHT22;392;48.838;2.322;2022-10-31T13:14:09;21.80;34.50
820;DHT22;392;48.838;2.322;2022-10-31T13:16:41;21.80;34.60
820;DHT22;392;48.838;2.322;2022-10-31T13:19:16;22.00;35.40
820;DHT22;392;48.838;2.322;2022-10-31T13:21:57;22.50;33.40
820;DHT22;392;48.838;2.322;2022-10-31T13:24:32;23.10;31.00
820;DHT22;392;48.838;2.322;2022-10-31T13:27:10;23.50;29.90
820;DHT22;392;48.838;2.322;2022-10-31T13:29:49;23.70;29.30
820;DHT22;392;48.838;2.322;2022-10-31T13:32:25;23.70;29.30
820;DHT22;392;48.838;2.322;2022-10-31T13:34:56;23.70;29.00
820;DHT22;392;48.838;2.322;2022-10-31T13:37:30;23.50;29.00
820;DHT22;392;48.838;2.322;2022-10-31T13:40:11;23.00;30.10
820;DHT22;392;48.838;2.322;2022-10-31T13:42:54;22.70;31.40
820;DHT22;392;48.838;2.322;2022-10-31T13:45:26;22.60;32.00
820;DHT22;392;48.838;2.322;2022-10-31T13:47:59;22.50;32.60
820;DHT22;392;48.838;2.322;2022-10-31T13:50:31;22.70;32.10
820;DHT22;392;48.838;2.322;2022-10-31T13:53:14;22.80;31.50
820;DHT22;392;48.838;2.322;2022-10-31T13:55:49;22.70;32.00
820;DHT22;392;48.838;2.322;2022-10-31T13:58:25;22.80;32.20
820;DHT22;392;48.838;2.322;2022-10-31T14:01:01;23.00;31.80
820;DHT22;392;48.838;2.322;2022-10-31T14:03:42;23.00;31.30
820;DHT22;392;48.838;2.322;2022-10-31T14:06:13;23.10;32.00
820;DHT22;392;48.838;2.322;2022-10-31T14:08:50;23.00;31.10
820;DHT22;392;48.838;2.322;2022-10-31T14:11:23;22.90;31.40
820;DHT22;392;48.838;2.322;2022-10-31T14:13:54;22.80;31.80
820;DHT22;392;48.838;2.322;2022-10-31T14:16:25;22.60;32.50
820;DHT22;392;48.838;2.322;2022-10-31T14:18:59;22.50;32.90
820;DHT22;392;48.838;2.322;2022-10-31T14:21:39;22.40;33.70
820;DHT22;392;48.838;2.322;2022-10-31T14:24:14;22.40;33.80
820;DHT22;392;48.838;2.322;2022-10-31T14:26:52;22.40;33.80
820;DHT22;392;48.838;2.322;2022-10-31T14:29:24;22.40;33.90
820;DHT22;392;48.838;2.322;2022-10-31T14:31:59;22.20;34.30
820;DHT22;392;48.838;2.322;2022-10-31T14:34:34;22.20;34.90
820;DHT22;392;48.838;2.322;2022-10-31T14:37:30;22.10;35.00
820;DHT22;392;48.838;2.322;2022-10-31T14:40:37;22.00;35.30
820;DHT22;392;48.838;2.322;2022-10-31T14:43:39;21.90;35.90
820;DHT22;392;48.838;2.322;2022-10-31T14:46:18;21.90;36.10
820;DHT22;392;48.838;2.322;2022-10-31T14:49:16;21.80;36.70
820;DHT22;392;48.838;2.322;2022-10-31T14:51:50;21.70;37.20
820;DHT22;392;48.838;2.322;2022-10-31T14:54:24;21.60;37.50
820;DHT22;392;48.838;2.322;2022-10-31T14:56:59;21.50;38.10
820;DHT22;392;48.838;2.322;2022-10-31T14:59:33;21.50;38.70
820;DHT22;392;48.838;2.322;2022-10-31T15:02:09;21.40;39.10
820;DHT22;392;48.838;2.322;2022-10-31T15:04:40;21.40;39.30
820;DHT22;392;48.838;2.322;2022-10-31T15:07:11;21.50;39.40
820;DHT22;392;48.838;2.322;2022-10-31T15:09:43;21.40;39.30
820;DHT22;392;48.838;2.322;2022-10-31T15:12:23;21.40;39.40
820;DHT22;392;48.838;2.322;2022-10-31T15:14:52;21.30;39.80
820;DHT22;392;48.838;2.322;2022-10-31T15:17:21;21.30;40.00
820;DHT22;392;48.838;2.322;2022-10-31T15:19:49;21.30;40.10
820;DHT22;392;48.838;2.322;2022-10-31T15:22:18;21.30;40.30
820;DHT22;392;48.838;2.322;2022-10-31T15:24:50;21.20;40.60
820;DHT22;392;48.838;2.322;2022-10-31T15:27:22;21.20;41.50
820;DHT22;392;48.838;2.322;2022-10-31T15:29:52;21.20;41.00
820;DHT22;392;48.838;2.322;2022-10-31T15:32:21;21.20;41.20
820;DHT22;392;48.838;2.322;2022-10-31T15:34:50;21.10;41.40
820;DHT22;392;48.838;2.322;2022-10-31T15:37:20;21.10;41.60
820;DHT22;392;48.838;2.322;2022-10-31T15:39:52;21.00;41.80
820;DHT22;392;48.838;2.322;2022-10-31T15:42:22;21.00;42.00
820;DHT22;392;48.838;2.322;2022-10-31T15:44:55;21.00;42.10
820;DHT22;392;48.838;2.322;2022-10-31T15:47:26;20.90;42.00
820;DHT22;392;48.838;2.322;2022-10-31T15:49:57;20.90;42.20
820;DHT22;392;48.838;2.322;2022-10-31T15:52:29;20.80;42.40
820;DHT22;392;48.838;2.322;2022-10-31T15:55:01;20.80;42.40
820;DHT22;392;48.838;2.322;2022-10-31T15:57:32;20.80;42.50
820;DHT22;392;48.838;2.322;2022-10-31T16:00:00;20.80;42.60
820;DHT22;392;48.838;2.322;2022-10-31T16:02:28;20.70;42.40
820;DHT22;392;48.838;2.322;2022-10-31T16:04:57;20.70;42.60
820;DHT22;392;48.838;2.322;2022-10-31T16:07:31;20.70;42.70
820;DHT22;392;48.838;2.322;2022-10-31T16:10:01;20.60;42.70
820;DHT22;392;48.838;2.322;2022-10-31T16:12:33;20.60;43.40
820;DHT22;392;48.838;2.322;2022-10-31T16:15:04;20.50;42.70
820;DHT22;392;48.838;2.322;2022-10-31T16:17:32;20.50;42.60
820;DHT22;392;48.838;2.322;2022-10-31T16:20:01;20.50;42.60
820;DHT22;392;48.838;2.322;2022-10-31T16:22:35;20.40;42.70
820;DHT22;392;48.838;2.322;2022-10-31T16:25:09;20.40;42.60
820;DHT22;392;48.838;2.322;2022-10-31T16:27:40;20.40;42.60
820;DHT22;392;48.838;2.322;2022-10-31T16:30:29;20.40;42.60
820;DHT22;392;48.838;2.322;2022-10-31T16:33:03;20.40;43.40
820;DHT22;392;48.838;2.322;2022-10-31T16:35:33;20.40;42.60
820;DHT22;392;48.838;2.322;2022-10-31T16:38:01;20.40;42.70
820;DHT22;392;48.838;2.322;2022-10-31T16:40:31;20.40;42.10
820;DHT22;392;48.838;2.322;2022-10-31T16:42:59;20.30;41.90
820;DHT22;392;48.838;2.322;2022-10-31T16:45:29;20.30;41.50
820;DHT22;392;48.838;2.322;2022-10-31T16:48:03;20.30;42.50
820;DHT22;392;48.838;2.322;2022-10-31T16:50:33;20.30;43.70
820;DHT22;392;48.838;2.322;2022-10-31T16:53:01;20.20;44.50
820;DHT22;392;48.838;2.322;2022-10-31T16:55:29;20.20;44.50
820;DHT22;392;48.838;2.322;2022-10-31T16:58:01;20.10;45.10
820;DHT22;392;48.838;2.322;2022-10-31T17:00:28;20.10;45.50
820;DHT22;392;48.838;2.322;2022-10-31T17:02:56;20.10;45.10
820;DHT22;392;48.838;2.322;2022-10-31T17:05:25;20.00;45.10
820;DHT22;392;48.838;2.322;2022-10-31T17:07:55;20.00;46.20
820;DHT22;392;48.838;2.322;2022-10-31T17:10:22;20.00;51.80
820;DHT22;392;48.838;2.322;2022-10-31T17:12:53;19.60;58.70
820;DHT22;392;48.838;2.322;2022-10-31T17:15:24;19.30;64.30
820;DHT22;392;48.838;2.322;2022-10-31T17:17:52;19.10;62.70
820;DHT22;392;48.838;2.322;2022-10-31T17:20:21;18.90;61.50
820;DHT22;392;48.838;2.322;2022-10-31T17:22:51;18.90;60.80
820;DHT22;392;48.838;2.322;2022-10-31T17:25:20;18.90;61.90
820;DHT22;392;48.838;2.322;2022-10-31T17:27:48;18.90;62.70